• Join FlightAware (Why Join?)
  • Login
  • US Flag 
05:40PM EDT


 

Airport Tracker/Info


-or-


 

Live Flight TrackerFlight Track Log ✈ SWA16 ✈ 07-May-2013 ✈ KECP - KHOU

Flight Track Log - Related Links

Times and Time Zones

All times are in EDT time to prevent confusion due to time zone crossing. See the SWA16 flight status page for this flight to view local times or setup timezone preferences in your user account.

Time Position Orientation Groundspeed Altitude Reporting Facility
EDT Latitude Longitude Course Direction KTS MPH feet Rate Location/Type
08:45AM 30.4867 -85.8622 308° West 251 289 7,300  Level Jacksonville Center
08:46AM 30.5439 -85.9100 324° Northwest 256 295 11,000 3,600 Climbing Jacksonville Center
08:47AM 30.6136 -85.9675 325° Northwest 282 325 14,500 3,540 Climbing Jacksonville Center
08:48AM 30.6914 -86.0306 325° Northwest 312 359 18,100 3,600 Climbing Jacksonville Center
08:49AM 30.6121 -86.2907 300° West  Level FlightAware Approximate
08:49AM 30.7692 -86.0936 325° Northwest 332 382 21,700  Level Jacksonville Center
08:50AM 30.6671 -86.3923 308° West  Level FlightAware Approximate
08:50AM 30.8167 -86.1919 299° West 338 389 24,800  Level Jacksonville Center
08:51AM 30.8178 -86.3128 271° West 330 380 27,400 2,400 Climbing Jacksonville Center
08:52AM 30.8206 -86.4386 272° West 369 425 29,600 2,280 Climbing Jacksonville Center
08:53AM 30.8231 -86.5669 271° West 391 450 32,000 2,700 Climbing Jacksonville Center
08:54AM 30.8272 -86.7075 272° West 402 463 35,000 2,400 Climbing Jacksonville Center
08:55AM 30.8194 -86.8306 266° West 402 463 36,800 1,500 Climbing Jacksonville Center
08:57AM 30.8042 -87.0642 266° West 390 449 39,500 1,020 Climbing Houston Center
08:58AM 30.7972 -87.2039 267° West 397 457 40,000 240 Climbing Houston Center
08:59AM 30.7886 -87.3325 266° West 399 459 40,000  Level Houston Center
09:00AM 30.7822 -87.4597 267° West 395 455 40,000  Level Houston Center
09:01AM 30.7744 -87.5861 266° West 392 451 40,000 -60 Level Houston Center
09:02AM 30.7647 -87.7283 265° West 390 449 39,900 -60 Descending Houston Center
09:03AM 30.7556 -87.8525 265° West 388 447 39,900  Level Houston Center
09:04AM 30.7181 -87.9722 250° West 394 453 39,900  Level Houston Center
09:05AM 30.6786 -88.1033 251° West 395 455 40,000  Climbing Houston Center
09:06AM 30.6411 -88.2244 250° West 394 453 40,000  Level Houston Center
09:07AM 30.6036 -88.3464 250° West 398 458 40,000  Level Houston Center
09:08AM 30.5656 -88.4681 250° West 400 460 40,000  Level Houston Center
09:09AM 30.5264 -88.5911 250° West 404 465 40,000  Level Houston Center
09:11AM 30.4881 -88.7133 250° West 402 463 40,000  Level Houston Center
09:12AM 30.4497 -88.8361 250° West 404 465 40,000 -60 Level Houston Center
09:13AM 30.4100 -88.9661 251° West 400 460 39,900 -60 Descending Houston Center
09:14AM 30.3697 -89.0864 249° West 401 461 39,900  Level Houston Center
09:15AM 30.3244 -89.2314 250° West 401 461 39,900  Level Houston Center
09:16AM 30.2869 -89.3519 250° West 398 458 39,900  Level Houston Center
09:17AM 30.2483 -89.4719 250° West 396 456 39,900  Level Houston Center
09:18AM 30.2094 -89.5925 250° West 397 457 39,900  Level Houston Center
09:19AM 30.1694 -89.7139 249° West 398 458 39,900  Level Houston Center
09:20AM 30.1306 -89.8364 250° West 399 459 39,900  Level Houston Center
09:21AM 30.0911 -89.9578 249° West 401 461 39,900  Level Houston Center
09:22AM 30.0519 -90.0797 250° West 402 463 39,900  Level Houston Center
09:23AM 30.0125 -90.2011 249° West 403 464 39,900  Level Houston Center
09:24AM 29.9653 -90.3472 250° West 404 465 39,900  Level Houston Center
09:25AM 29.9250 -90.4678 249° West 404 465 39,900  Level Houston Center
09:26AM 29.8844 -90.5878 249° West 403 464 39,900  Level Houston Center
09:27AM 29.8450 -90.7081 249° West 402 463 39,900  Level Houston Center
09:28AM 29.8053 -90.8278 249° West 401 461 39,900  Level Houston Center
09:29AM 29.7656 -90.9475 249° West 401 461 39,900  Level Houston Center
09:30AM 29.7253 -91.0664 249° West 400 460 39,900  Level Houston Center
09:31AM 29.6842 -91.2117 252° West 400 460 39,900  Level Houston Center
09:32AM 29.6611 -91.3356 258° West 397 457 39,900  Level Houston Center
09:33AM 29.6358 -91.4592 257° West 398 458 39,900  Level Houston Center
09:34AM 29.6106 -91.5831 257° West 399 459 39,900  Level Houston Center
09:35AM 29.5831 -91.7081 256° West 399 459 40,000  Climbing Houston Center
09:36AM 29.5542 -91.8447 256° West 398 458 39,900 -60 Descending Houston Center
09:37AM 29.5289 -91.9681 257° West 398 458 39,900  Level Houston Center
09:38AM 29.5028 -92.0914 256° West 398 458 39,900  Level Houston Center
09:39AM 29.4764 -92.2131 256° West 395 455 39,900  Level Houston Center
09:40AM 29.4500 -92.3350 256° West 393 452 39,900  Level Houston Center
09:41AM 29.4192 -92.4800 256° West 390 449 39,900  Level Houston Center
09:42AM 29.3942 -92.5994 257° West 387 445 39,900  Level Houston Center
09:44AM 29.3808 -92.7219 263° West 387 445 39,900 -60 Level Houston Center
09:45AM 29.3750 -92.8431 267° West 382 440 39,800 -540 Descending Houston Center
09:46AM 29.3669 -92.9672 266° West 389 448 38,800 -960 Descending Houston Center
09:47AM 29.3597 -93.0919 266° West 391 450 37,900 -900 Descending Houston Center
09:48AM 29.3511 -93.2211 266° West 402 463 37,000 -1,020 Descending Houston Center
09:49AM 29.3419 -93.3756 266° West 405 466 35,800 -1,020 Descending Houston Center
09:50AM 29.3336 -93.5022 266° West 401 461 34,900 -1,980 Descending Houston Center
09:51AM 29.3258 -93.6314 266° West 404 465 31,800 -3,420 Descending Houston Center
09:52AM 29.3172 -93.7619 266° West 408 470 27,900 -3,480 Descending Houston Center
09:53AM 29.3086 -93.8892 266° West 403 464 24,700 -3,000 Descending Houston Center
09:54AM 29.3186 -94.0092 275° West 379 436 21,800 -2,760 Descending Houston Center
09:55AM 29.3394 -94.1231 282° West 368 423 19,000 -2,880 Descending Houston Center
09:56AM 29.3342 -94.2561 267° West 363 418 15,900 -3,060 Descending Houston Center
09:56AM 29.3267 -94.2858 254° West 371 427 15,000 -2,760 Descending Houston Center
09:57AM 29.3028 -94.3650 251° West 361 415 13,100 -2,220 Descending Houston Center
09:57AM 29.2919 -94.4031 252° West 361 415 12,800 -1,020 Descending Houston Center
09:58AM 29.2736 -94.4706 253° West 352 405 12,100 -840 Descending Houston Center
09:58AM 29.2772 -94.5081 276° West 333 383 12,000 -420 Descending Houston Center
09:59AM 29.3094 -94.5664 302° West 335 386 11,700 -720 Descending Houston Center
10:00AM 29.3547 -94.6608 299° West 337 388 10,700 -900 Descending Houston Center
10:01AM 29.3950 -94.7444 299° West 316 364 9,900 -360 Descending Houston Center
10:02AM 29.4375 -94.8297 300° West 262 302 10,000 -960 Climbing Houston Center
10:03AM 29.4722 -94.9006 299° West 254 292 7,900 -2,040 Descending Houston Center
10:03AM 29.4836 -94.9258 297° West 268 308 7,400 -1,800 Descending Houston Center
10:04AM 29.5086 -94.9753 300° West 264 304 6,100 -780 Descending Houston Center
10:05AM 29.5456 -95.0506 299° West 269 310 6,000 -60 Descending Houston Center
10:06AM 29.5817 -95.1250 299° West 266 306 6,000 -60 Level Houston Center
10:07AM 29.5747 -95.2089 265° West 269 310 5,900 -300 Descending Houston Center
10:08AM 29.5311 -95.2728 232° Southwest 209 241 5,400 -660 Descending Houston Center
10:09AM 29.5022 -95.3244 237° Southwest 194 223 4,600 -960 Descending Houston Center
10:10AM 29.5353 -95.3636 314° West 168 193 3,500 -1,380 Descending Houston Center
10:11AM 29.5725 -95.3592 North 161 185 1,800 -1,140 Descending Houston Center
10:12AM 29.6006 -95.3286 43° Northeast 141 162 1,100 -720 Descending Houston Center
10:14AM 29.6258 -95.2994 45° Northeast 130 150 400 -720 Descending Houston Center